Time;durP1;ratioP1;P1;durP2;ratioP2;P2;SDS_P1;SDS_P2;PMS_P1;PMS_P2;Temp;Humidity;BMP_temperature;BMP_pressure;BME280_temperature;BME280_humidity;BME280_pressure;Samples;Min_cycle;Max_cycle;Signal;HPM_P1;HPM_P2
2022/08/11 00:02:25;;;;;;;6.15;1.75;;;;;;;18.46;52.77;96920.00;5015394;28;20061;-67
2022/08/11 00:04:53;;;;;;;6.25;1.95;;;;;;;18.51;52.62;96922.31;5025169;28;20045;-66
2022/08/11 00:07:18;;;;;;;4.78;2.00;;;;;;;18.29;53.53;96919.00;5012844;28;20188;-66
2022/08/11 00:09:45;;;;;;;3.88;1.50;;;;;;;18.29;53.65;96911.47;5001839;28;20125;-65
2022/08/11 00:12:15;;;;;;;4.20;1.50;;;;;;;18.21;53.92;96917.50;4987687;28;20375;-66
2022/08/11 00:14:42;;;;;;;3.80;1.60;;;;;;;18.20;54.01;96922.25;5002564;28;20041;-66
2022/08/11 00:17:11;;;;;;;4.43;1.65;;;;;;;18.25;53.72;96919.03;4980469;28;20513;-66
2022/08/11 00:19:46;;;;;;;4.57;1.60;;;;;;;18.24;54.04;96922.22;5006108;28;20104;-67
2022/08/11 00:22:19;;;;;;;3.33;1.92;;;;;;;18.17;54.25;96919.50;5002008;28;20499;-66
2022/08/11 00:24:46;;;;;;;3.58;1.50;;;;;;;18.13;54.47;96920.34;5007116;28;20042;-66
2022/08/11 00:27:12;;;;;;;4.22;1.80;;;;;;;18.10;54.47;96921.16;5007369;28;20514;-66
2022/08/11 00:29:37;;;;;;;7.40;1.75;;;;;;;18.11;54.81;96922.75;5018055;28;20034;-66
2022/08/11 00:32:05;;;;;;;5.93;2.00;;;;;;;18.06;55.00;96916.84;5019734;28;20398;-67
2022/08/11 00:34:36;;;;;;;3.72;1.80;;;;;;;18.06;55.07;96909.34;5012415;28;20390;-66
2022/08/11 00:37:05;;;;;;;4.78;1.70;;;;;;;18.01;55.41;96911.78;5042341;22;20124;-68
2022/08/11 00:39:34;;;;;;;3.63;1.73;;;;;;;18.09;55.12;96921.56;5014850;28;20061;-67
2022/08/11 00:42:08;;;;;;;;;;;;;;;18.10;54.99;96912.84;5017158;28;20030;-66
2022/08/11 00:45:14;;;;;;;3.47;1.73;;;;;;;18.11;54.92;96913.63;5033331;28;19917;-65
2022/08/11 00:48:06;;;;;;;3.33;1.52;;;;;;;18.04;55.40;96905.38;4993660;28;20097;-66
2022/08/11 00:50:59;;;;;;;4.25;1.70;;;;;;;18.04;55.34;96900.66;5032632;28;20040;-67
2022/08/11 00:53:35;;;;;;;6.05;1.67;;;;;;;18.03;55.75;96901.84;5016826;28;20079;-67
2022/08/11 00:56:20;;;;;;;9.00;1.63;;;;;;;18.08;55.30;96901.41;4999167;28;20116;-67
2022/08/11 00:59:10;;;;;;;3.17;1.92;;;;;;;18.11;55.48;96905.31;5030964;28;20045;-66
2022/08/11 01:01:35;;;;;;;6.40;1.77;;;;;;;18.01;55.95;96895.94;5028395;28;20029;-67
2022/08/11 01:04:31;;;;;;;11.30;2.10;;;;;;;18.01;56.24;96893.16;5031447;28;20052;-65
2022/08/11 01:07:15;;;;;;;3.33;1.70;;;;;;;17.93;56.37;96886.91;5022561;28;20065;-67
2022/08/11 01:09:53;;;;;;;4.32;1.75;;;;;;;18.00;55.88;96894.34;5033157;28;20048;-66
2022/08/11 01:12:43;;;;;;;4.35;1.67;;;;;;;17.94;56.28;96888.47;5027689;28;20509;-67
2022/08/11 01:15:17;;;;;;;4.40;1.58;;;;;;;17.83;57.03;96892.50;5015512;28;20089;-68
2022/08/11 01:18:10;;;;;;;2.50;1.45;;;;;;;17.76;57.39;96890.59;5015031;28;20100;-67
2022/08/11 01:21:06;;;;;;;6.82;1.90;;;;;;;17.75;57.46;96895.34;5016358;28;20038;-66
2022/08/11 01:24:09;;;;;;;3.92;2.00;;;;;;;17.65;57.93;96893.44;5014445;28;20033;-68
2022/08/11 01:26:47;;;;;;;5.40;1.98;;;;;;;17.71;57.50;96896.56;5015599;28;20486;-68
2022/08/11 01:29:40;;;;;;;3.05;1.60;;;;;;;17.63;57.82;96901.38;5028528;28;20052;-68
2022/08/11 01:32:20;;;;;;;6.03;1.55;;;;;;;17.61;58.09;96892.72;5034337;28;20464;-65
2022/08/11 01:35:01;;;;;;;5.38;2.00;;;;;;;17.70;57.40;96889.44;5033918;28;20429;-67
2022/08/11 01:37:45;;;;;;;4.55;1.73;;;;;;;17.66;57.94;96894.22;5028959;28;20871;-67
2022/08/11 01:40:25;;;;;;;3.15;1.95;;;;;;;17.53;58.70;96902.25;5026163;28;20033;-69
2022/08/11 01:46:30;;;;;;;3.00;1.75;;;;;;;17.54;58.61;96901.84;5024172;28;20029;-67
2022/08/11 01:49:39;;;;;;;3.47;2.25;;;;;;;17.43;59.20;96903.13;5022116;28;20052;-66
2022/08/11 01:52:35;;;;;;;5.43;2.00;;;;;;;17.34;59.64;96900.81;5020810;28;20049;-65
2022/08/11 01:55:42;;;;;;;6.10;2.05;;;;;;;17.26;60.14;96899.28;5032223;28;20279;-66
2022/08/11 01:58:22;;;;;;;4.70;2.15;;;;;;;17.31;59.81;96898.88;5014335;28;20577;-67
2022/08/11 02:01:12;;;;;;;5.22;1.92;;;;;;;17.33;59.88;96902.00;5016104;28;20055;-66
2022/08/11 02:03:54;;;;;;;3.92;1.98;;;;;;;17.28;59.93;96900.44;5034317;28;20109;-67
2022/08/11 02:06:56;;;;;;;3.05;1.90;;;;;;;17.32;59.62;96898.47;5015214;28;20041;-66
2022/08/11 02:09:43;;;;;;;5.40;2.40;;;;;;;17.33;59.82;96897.25;5012827;28;20036;-67
2022/08/11 02:12:56;;;;;;;4.10;1.73;;;;;;;17.31;59.75;96902.41;5035163;28;20036;-66
2022/08/11 02:15:40;;;;;;;9.73;2.33;;;;;;;17.28;60.04;96888.59;5033103;28;20502;-66
2022/08/11 02:18:22;;;;;;;3.92;2.00;;;;;;;17.20;60.60;96901.69;5028110;28;20402;-67
2022/08/11 02:23:54;;;;;;;4.38;1.95;;;;;;;17.23;60.58;96894.56;5036060;28;20072;-67
2022/08/11 02:26:24;;;;;;;4.38;2.20;;;;;;;17.26;60.41;96899.28;5034491;28;20033;-67
2022/08/11 02:28:52;;;;;;;2.97;2.00;;;;;;;17.29;60.34;96899.25;5036733;28;20029;-66
2022/08/11 02:34:46;;;;;;;6.63;2.08;;;;;;;17.23;60.65;96889.81;5031253;28;20100;-66
2022/08/11 02:37:15;;;;;;;4.57;2.13;;;;;;;17.18;60.95;96891.03;5001131;28;20367;-67
2022/08/11 02:39:49;;;;;;;3.38;2.10;;;;;;;17.06;61.55;96888.75;5036024;28;20065;-68
2022/08/11 02:42:36;;;;;;;5.65;2.40;;;;;;;16.97;62.03;96897.47;5035963;28;20088;-67
2022/08/11 02:45:11;;;;;;;3.50;1.70;;;;;;;17.00;61.98;96884.84;5028720;28;20492;-65
2022/08/11 02:51:14;;;;;;;6.55;2.30;;;;;;;17.17;61.42;96892.22;5044391;28;20037;-65
2022/08/11 02:53:50;;;;;;;5.00;2.08;;;;;;;17.07;61.68;96889.50;5033636;28;20040;-67
2022/08/11 02:56:30;;;;;;;5.43;2.15;;;;;;;16.97;62.25;96880.88;5028403;28;20017;-68
2022/08/11 03:02:05;;;;;;;3.78;2.13;;;;;;;17.06;61.91;96890.72;5035151;28;20100;-68
2022/08/11 03:04:54;;;;;;;5.63;2.20;;;;;;;17.04;62.11;96882.81;5034359;28;20045;-67
2022/08/11 03:07:30;;;;;;;5.70;2.30;;;;;;;16.97;62.63;96880.09;5028253;28;20025;-68
2022/08/11 03:10:08;;;;;;;4.80;2.13;;;;;;;16.93;62.73;96873.81;5018980;28;20022;-68
2022/08/11 03:18:39;;;;;;;3.60;2.40;;;;;;;16.78;63.43;96879.41;5040693;28;20041;-67
2022/08/11 03:21:16;;;;;;;3.53;2.40;;;;;;;16.69;64.40;96889.31;5028062;28;20040;-65
2022/08/11 03:24:03;;;;;;;6.80;2.10;;;;;;;16.59;65.05;96890.94;5048836;28;20036;-66
2022/08/11 03:26:41;;;;;;;4.95;2.50;;;;;;;16.68;64.54;96885.75;5041321;28;20041;-65
2022/08/11 03:29:33;;;;;;;5.03;2.40;;;;;;;16.49;65.84;96892.53;5035751;28;20030;-67
2022/08/11 03:32:05;;;;;;;4.10;2.13;;;;;;;16.46;66.17;96885.06;5037748;28;20044;-66
2022/08/11 03:34:36;;;;;;;9.30;2.63;;;;;;;16.47;66.04;96885.84;5016661;28;20053;-67
2022/08/11 03:37:49;;;;;;;5.43;2.50;;;;;;;16.46;66.21;96884.25;5026039;28;20040;-67
2022/08/11 03:41:41;;;;;;;3.47;2.20;;;;;;;16.38;66.68;96887.06;5033397;28;20132;-70
2022/08/11 03:43:45;;;;;;;3.78;2.13;;;;;;;16.38;66.90;96889.03;5033252;28;20483;-67
2022/08/11 03:46:29;;;;;;;3.65;2.40;;;;;;;16.28;67.32;96885.13;5023162;28;20041;-68
2022/08/11 03:49:19;;;;;;;8.23;2.58;;;;;;;16.27;67.55;96888.28;5032928;28;20472;-67
2022/08/11 03:52:11;;;;;;;5.82;2.35;;;;;;;16.27;67.65;96891.84;5033108;28;20048;-68
2022/08/11 03:55:01;;;;;;;6.82;2.40;;;;;;;16.20;68.09;96889.09;5031694;28;20029;-68
2022/08/11 03:57:48;;;;;;;4.05;2.67;;;;;;;16.19;68.23;96890.28;5015308;28;20028;-68
2022/08/11 04:00:53;;;;;;;6.32;2.90;;;;;;;16.14;68.56;96885.94;5027617;28;20041;-68
2022/08/11 04:03:39;;;;;;;5.75;2.70;;;;;;;16.16;68.65;96889.09;5015073;28;20044;-68
2022/08/11 04:06:11;;;;;;;4.38;2.58;;;;;;;16.03;69.65;96888.75;5018909;28;20026;-67
2022/08/11 04:08:46;;;;;;;4.20;2.70;;;;;;;16.01;69.67;96899.41;5018654;28;20121;-69
2022/08/11 04:12:04;;;;;;;5.15;2.55;;;;;;;15.99;70.02;96896.25;5032755;28;20126;-68
2022/08/11 04:17:57;;;;;;;4.53;2.63;;;;;;;15.93;70.59;96899.81;5032327;28;20022;-68
2022/08/11 04:20:47;;;;;;;6.28;3.03;;;;;;;15.85;71.18;96897.06;5032454;28;20044;-68
2022/08/11 04:23:46;;;;;;;7.75;3.03;;;;;;;15.81;71.34;96901.00;5031426;28;20045;-69
2022/08/11 04:26:39;;;;;;;4.38;2.75;;;;;;;15.76;72.19;96909.72;5028960;28;20069;-67
2022/08/11 04:29:30;;;;;;;5.68;2.60;;;;;;;15.76;71.84;96909.72;5032422;28;20060;-68
2022/08/11 04:32:29;;;;;;;5.30;3.00;;;;;;;15.77;72.14;96902.97;5033693;28;20028;-68
2022/08/11 04:35:36;;;;;;;6.25;3.10;;;;;;;15.76;72.35;96906.94;5015162;28;20034;-68
2022/08/11 04:38:23;;;;;;;5.63;2.90;;;;;;;15.77;72.34;96914.03;5015605;28;20026;-66
2022/08/11 04:43:19;;;;;;;10.23;3.00;;;;;;;15.74;72.65;96914.81;5008349;28;20465;-69
2022/08/11 04:44:59;;;;;;;6.07;2.88;;;;;;;15.80;72.88;96914.03;5008784;28;20041;-69
2022/08/11 05:02:54;;;;;;;4.65;2.83;;;;;;;16.28;70.95;96920.25;5018631;28;20061;-67
2022/08/11 05:05:33;;;;;;;5.55;2.72;;;;;;;16.27;71.43;96918.69;5014214;28;20026;-65
2022/08/11 05:08:16;;;;;;;5.63;2.90;;;;;;;16.33;71.27;96933.66;5012687;28;20029;-66
2022/08/11 05:11:06;;;;;;;11.32;2.92;;;;;;;16.57;70.32;96930.03;5011085;28;20069;-67
2022/08/11 05:36:15;;;;;;;5.03;2.55;;;;;;;18.31;63.17;96931.25;5037524;28;20025;-65
2022/08/11 05:58:09;;;;;;;7.90;2.97;;;;;;;19.36;58.84;96933.53;5034577;28;20026;-68
2022/08/11 06:00:45;;;;;;;9.73;3.22;;;;;;;19.23;59.40;96935.31;5035287;28;20033;-68
2022/08/11 06:03:24;;;;;;;5.82;2.70;;;;;;;19.85;57.18;96928.44;5035918;28;20095;-67
2022/08/11 06:05:50;;;;;;;4.63;2.55;;;;;;;19.96;56.57;96942.13;5036237;28;20025;-68
2022/08/11 06:08:16;;;;;;;5.25;2.15;;;;;;;20.33;55.98;96943.09;5034312;28;20059;-68
2022/08/11 06:10:43;;;;;;;4.25;2.50;;;;;;;20.25;56.10;96941.63;5026325;28;20061;-68
2022/08/11 06:13:13;;;;;;;10.40;2.60;;;;;;;19.78;56.52;96942.44;5022873;28;20151;-68
2022/08/11 06:15:47;;;;;;;6.13;2.60;;;;;;;19.91;57.72;96941.84;5024805;28;20451;-67
2022/08/11 06:18:14;;;;;;;3.95;2.92;;;;;;;19.39;58.93;96940.25;5032823;28;20031;-68
2022/08/11 06:21:08;;;;;;;5.18;2.65;;;;;;;20.04;57.19;96940.81;5035827;28;20044;-67
2022/08/11 06:23:34;;;;;;;8.05;3.03;;;;;;;19.17;59.55;96948.88;5035622;28;20456;-68
2022/08/11 06:26:00;;;;;;;5.75;2.60;;;;;;;19.71;58.01;96936.19;5030632;28;20034;-68
2022/08/11 06:28:34;;;;;;;5.63;3.00;;;;;;;19.91;57.87;96945.41;5029342;28;20468;-68
2022/08/11 06:31:02;;;;;;;4.65;2.70;;;;;;;19.13;59.64;96934.25;5034450;28;20542;-65
2022/08/11 06:33:38;;;;;;;5.65;2.85;;;;;;;19.18;59.68;96938.56;5016953;28;20041;-65
2022/08/11 06:36:11;;;;;;;9.10;2.40;;;;;;;19.62;58.82;96939.50;5045743;28;20025;-64
2022/08/11 06:39:08;;;;;;;7.13;2.80;;;;;;;19.85;57.95;96933.22;5033439;28;20042;-64
2022/08/11 06:41:48;;;;;;;7.03;2.92;;;;;;;19.75;57.92;96934.94;5034552;28;20087;-64
2022/08/11 06:44:20;;;;;;;5.05;2.33;;;;;;;20.01;57.23;96936.09;5032713;28;20116;-65
2022/08/11 06:46:50;;;;;;;8.18;3.10;;;;;;;20.60;56.48;96944.97;5032375;28;20025;-63
2022/08/11 06:52:08;;;;;;;7.85;2.90;;;;;;;20.21;55.95;96940.94;5033361;28;20029;-64
2022/08/11 06:54:40;;;;;;;5.38;2.78;;;;;;;19.91;57.09;96942.63;5033512;28;20091;-64
2022/08/11 07:02:45;;;;;;;5.82;2.53;;;;;;;21.08;54.44;96946.41;5034166;28;20029;-64
2022/08/11 07:05:21;;;;;;;6.00;2.20;;;;;;;21.55;53.14;96950.97;5041900;28;20030;-64
2022/08/11 07:16:48;;;;;;;5.45;2.50;;;;;;;22.39;50.57;96944.94;5020653;28;20473;-63
2022/08/11 07:30:39;;;;;;;4.25;2.45;;;;;;;21.00;53.73;96951.34;5014186;28;20056;-64
2022/08/11 07:33:06;;;;;;;4.53;2.40;;;;;;;21.51;52.98;96951.03;5018877;28;20398;-63
2022/08/11 07:35:34;;;;;;;5.53;2.60;;;;;;;21.76;51.98;96953.25;5040898;28;20057;-63
2022/08/11 07:38:06;;;;;;;8.07;2.70;;;;;;;21.90;52.04;96952.13;5033862;28;20468;-64
2022/08/11 07:40:33;;;;;;;5.53;3.08;;;;;;;21.89;51.96;96950.53;5022158;28;20497;-64
2022/08/11 07:43:00;;;;;;;4.78;2.40;;;;;;;21.99;51.85;96948.72;5014053;28;20041;-64
2022/08/11 07:53:45;;;;;;;3.80;2.60;;;;;;;21.43;53.32;96949.63;5022263;28;20072;-66
2022/08/11 07:56:15;;;;;;;4.90;2.47;;;;;;;21.30;54.48;96952.31;5009491;28;20061;-65
2022/08/11 08:18:02;;;;;;;4.50;2.50;;;;;;;22.26;51.11;96950.44;5014144;28;20044;-65
2022/08/11 08:20:33;;;;;;;5.78;2.60;;;;;;;24.31;46.41;96949.94;5014692;28;20091;-65
2022/08/11 08:23:01;;;;;;;7.82;2.75;;;;;;;22.32;50.93;96957.06;5015474;28;20043;-65
2022/08/11 08:25:32;;;;;;;6.40;2.63;;;;;;;23.74;48.33;96958.97;5007939;28;20095;-66
2022/08/11 08:28:00;;;;;;;5.88;2.45;;;;;;;23.28;48.58;96955.59;5020722;28;20045;-66
2022/08/11 08:30:46;;;;;;;5.28;2.40;;;;;;;23.60;48.42;96949.03;5007849;28;20478;-65
2022/08/11 08:33:13;;;;;;;4.60;2.40;;;;;;;22.99;50.22;96950.84;5010698;28;20532;-65
2022/08/11 08:35:40;;;;;;;6.97;3.08;;;;;;;23.53;49.46;96943.66;5019223;28;20122;-65
2022/08/11 08:38:06;;;;;;;7.68;2.50;;;;;;;25.46;44.44;96945.81;5007617;28;20517;-64
2022/08/11 08:40:32;;;;;;;8.82;2.90;;;;;;;25.68;44.16;96942.97;5019610;28;20124;-65
2022/08/11 08:43:03;;;;;;;5.82;2.67;;;;;;;24.74;45.42;96948.47;5020065;28;20498;-65
2022/08/11 08:45:33;;;;;;;5.03;2.53;;;;;;;24.47;46.33;96949.81;5019591;28;20064;-64
2022/08/11 08:48:02;;;;;;;5.50;2.38;;;;;;;25.09;46.43;96954.00;5018454;28;20124;-65
2022/08/11 08:53:22;;;;;;;5.15;2.28;;;;;;;28.57;37.74;96941.47;5013590;28;20034;-64
2022/08/11 08:55:49;;;;;;;4.90;2.13;;;;;;;24.45;45.31;96959.88;5021019;28;20075;-63
2022/08/11 08:58:20;;;;;;;5.80;2.30;;;;;;;24.72;45.63;96946.16;5015742;28;20507;-64
2022/08/11 09:00:50;;;;;;;5.82;2.45;;;;;;;25.84;44.07;96953.13;5020525;28;20049;-65
2022/08/11 09:03:18;;;;;;;7.03;2.40;;;;;;;25.42;43.99;96947.97;5016679;28;20478;-65
2022/08/11 09:05:44;;;;;;;9.35;2.20;;;;;;;25.48;45.13;96946.13;5019338;28;20044;-65
2022/08/11 09:08:10;;;;;;;5.72;2.45;;;;;;;24.28;45.63;96950.88;5016153;28;20756;-64
2022/08/11 09:10:37;;;;;;;4.57;2.50;;;;;;;24.99;46.51;96950.34;5021250;28;20046;-66
2022/08/11 09:13:05;;;;;;;8.60;2.55;;;;;;;28.15;38.62;96941.63;5019234;28;20037;-63
2022/08/11 09:15:31;;;;;;;4.70;2.30;;;;;;;27.19;41.65;96953.38;5020412;28;20489;-64
2022/08/11 09:18:05;;;;;;;4.00;1.90;;;;;;;26.75;41.02;96945.34;5012553;28;20077;-64
2022/08/11 09:20:36;;;;;;;4.75;2.10;;;;;;;28.37;38.19;96941.31;5044223;23;20659;-67
2022/08/11 09:28:44;;;;;;;;;;;;;;;25.78;42.85;96940.94;4998744;28;20447;-67
2022/08/11 09:31:13;;;;;;;6.10;2.13;;;;;;;26.19;43.41;96950.13;5030300;28;19916;-65
2022/08/11 09:33:41;;;;;;;5.10;2.10;;;;;;;25.94;42.52;96943.50;5039147;28;20072;-68
2022/08/11 09:41:38;;;;;;;3.90;2.13;;;;;;;26.12;42.85;96943.56;5040215;28;20051;-65
2022/08/11 09:46:51;;;;;;;4.30;2.00;;;;;;;28.48;37.73;96937.94;5037908;28;20072;-65
2022/08/11 09:49:23;;;;;;;5.75;2.22;;;;;;;28.36;38.21;96940.53;5030380;28;20701;-66
2022/08/11 09:51:49;;;;;;;6.03;1.85;;;;;;;26.31;42.23;96947.19;5037376;28;20110;-65
2022/08/11 09:54:17;;;;;;;4.55;2.22;;;;;;;26.64;41.33;96935.34;5024364;28;20045;-66
2022/08/11 09:59:28;;;;;;;4.32;1.90;;;;;;;27.05;40.61;96935.94;5037663;28;20075;-66
2022/08/11 10:01:58;;;;;;;7.97;2.45;;;;;;;25.58;42.93;96936.50;5040352;28;20041;-65
2022/08/11 10:04:30;;;;;;;;;;;;;;;25.88;42.91;96946.13;5034881;28;20250;-66
2022/08/11 10:07:02;;;;;;;6.90;2.20;;;;;;;26.21;42.33;96939.97;5039522;28;20466;-67
2022/08/11 10:09:35;;;;;;;3.28;2.17;;;;;;;25.30;45.11;96939.22;5038959;28;20037;-66
2022/08/11 10:12:04;;;;;;;5.70;2.05;;;;;;;25.72;44.38;96933.13;5041650;28;20428;-66
2022/08/11 10:17:19;;;;;;;5.82;3.08;;;;;;;26.22;42.91;96932.38;5035539;28;20064;-66
2022/08/11 10:19:47;;;;;;;5.25;2.92;;;;;;;27.30;41.52;96925.59;5036984;28;20045;-67
2022/08/11 10:27:43;;;;;;;7.30;2.28;;;;;;;25.93;43.91;96930.75;5027055;28;20080;-66
2022/08/11 10:35:42;;;;;;;3.78;1.90;;;;;;;26.76;42.66;96919.59;5037392;28;20037;-65
2022/08/11 10:38:10;;;;;;;5.43;2.00;;;;;;;26.35;44.52;96935.03;5035481;28;20037;-65
2022/08/11 10:40:39;;;;;;;6.57;2.20;;;;;;;26.43;43.67;96923.00;5038734;28;20048;-66
2022/08/11 10:43:11;;;;;;;14.90;2.38;;;;;;;25.83;44.72;96926.31;5022696;28;20045;-65
2022/08/11 10:48:25;;;;;;;5.40;1.92;;;;;;;27.02;41.48;96920.00;5036195;28;20171;-66
2022/08/11 10:59:13;;;;;;;3.47;2.20;;;;;;;25.81;46.12;96921.16;5040061;28;20477;-65
2022/08/11 11:01:41;;;;;;;4.13;2.20;;;;;;;26.08;45.51;96925.31;5042982;28;20051;-65
2022/08/11 11:04:14;;;;;;;3.38;2.20;;;;;;;26.80;43.14;96911.00;5031886;28;20429;-65
2022/08/11 11:06:53;;;;;;;3.35;2.35;;;;;;;26.78;43.88;96913.50;5029661;28;20501;-67
2022/08/11 11:09:24;;;;;;;4.90;2.70;;;;;;;27.28;42.86;96911.22;5031601;28;20033;-66
2022/08/11 11:18:00;;;;;;;6.50;2.38;;;;;;;26.09;44.84;96913.63;5030721;28;20045;-66
2022/08/11 11:20:32;;;;;;;3.83;2.30;;;;;;;26.89;43.42;96897.69;5033116;28;20052;-66
2022/08/11 11:23:04;;;;;;;3.35;1.92;;;;;;;27.56;42.59;96894.22;5042172;28;20049;-64
2022/08/11 11:25:36;;;;;;;4.35;2.20;;;;;;;27.32;42.34;96908.25;5042282;28;20048;-66
2022/08/11 11:28:23;;;;;;;4.22;2.13;;;;;;;26.49;43.18;96909.91;5035885;28;20041;-64
2022/08/11 11:31:14;;;;;;;3.10;2.03;;;;;;;26.40;43.81;96898.66;5033479;28;20152;-65
2022/08/11 11:34:00;;;;;;;5.28;2.30;;;;;;;26.39;43.92;96899.91;5041669;28;20036;-65
2022/08/11 11:36:53;;;;;;;7.60;2.47;;;;;;;25.99;44.75;96903.63;5012524;28;20045;-66
2022/08/11 11:39:21;;;;;;;3.45;2.30;;;;;;;26.20;44.53;96895.53;5037010;28;20041;-66
2022/08/11 11:41:53;;;;;;;4.05;2.08;;;;;;;26.39;45.20;96901.94;5040946;28;20037;-66
2022/08/11 11:44:21;;;;;;;6.95;2.30;;;;;;;27.25;42.82;96893.22;5036737;28;20378;-65
2022/08/11 11:46:47;;;;;;;5.70;2.08;;;;;;;27.24;42.47;96890.88;5039613;28;20041;-65
2022/08/11 11:49:17;;;;;;;5.47;2.50;;;;;;;26.39;43.67;96899.13;5031232;28;20043;-66
2022/08/11 11:51:45;;;;;;;5.45;2.00;;;;;;;26.43;44.48;96891.31;5039799;28;20032;-65
2022/08/11 11:54:16;;;;;;;4.78;2.40;;;;;;;26.79;44.23;96887.72;5036217;28;20041;-64
2022/08/11 11:56:44;;;;;;;9.38;2.10;;;;;;;27.36;42.52;96880.72;5041858;28;20060;-66
2022/08/11 12:01:55;;;;;;;3.08;2.00;;;;;;;26.70;44.24;96874.50;5038275;28;20032;-66
2022/08/11 12:04:22;;;;;;;4.95;2.45;;;;;;;26.45;43.19;96881.19;5029922;28;20044;-67
2022/08/11 12:06:48;;;;;;;6.95;2.28;;;;;;;26.40;43.02;96878.22;5041783;28;20037;-68
2022/08/11 12:09:17;;;;;;;7.00;2.33;;;;;;;26.44;43.79;96874.00;5030372;28;20076;-67
2022/08/11 12:14:28;;;;;;;3.83;2.08;;;;;;;27.12;41.03;96866.56;5037991;28;20043;-64
2022/08/11 12:16:55;;;;;;;3.17;1.90;;;;;;;26.86;43.37;96869.75;5040074;28;20052;-65
2022/08/11 12:19:29;;;;;;;4.07;2.10;;;;;;;27.58;41.64;96869.22;5036971;28;20044;-66
2022/08/11 12:27:26;;;;;;;5.60;2.17;;;;;;;27.52;41.62;96852.22;5036846;28;20041;-65
2022/08/11 12:29:56;;;;;;;3.83;2.22;;;;;;;26.43;42.65;96858.41;5041621;28;20037;-65
2022/08/11 12:32:26;;;;;;;4.93;2.28;;;;;;;27.11;42.55;96850.97;5035128;28;20509;-65
2022/08/11 12:34:52;;;;;;;6.07;2.33;;;;;;;27.78;42.51;96848.94;5032405;28;20111;-64
2022/08/11 12:37:23;;;;;;;5.57;2.42;;;;;;;27.53;41.06;96845.34;5034413;28;20727;-66
2022/08/11 12:45:28;;;;;;;2.97;2.20;;;;;;;27.01;43.97;96834.13;5035990;28;20144;-64
2022/08/11 12:54:04;;;;;;;4.43;2.20;;;;;;;27.20;42.14;96822.81;5039813;28;19927;-66
2022/08/11 13:05:03;;;;;;;3.97;2.50;;;;;;;28.05;41.29;96824.69;5039001;28;20120;-65
2022/08/11 13:07:33;;;;;;;5.10;2.33;;;;;;;28.67;39.47;96832.31;5024336;28;20087;-65
2022/08/11 13:10:03;;;;;;;6.75;2.55;;;;;;;27.97;40.96;96827.09;5041030;28;20044;-66
2022/08/11 13:12:49;;;;;;;4.18;1.88;;;;;;;28.11;40.88;96815.13;5040487;28;20045;-65
2022/08/11 13:15:18;;;;;;;5.68;2.20;;;;;;;26.90;45.55;96819.78;5034212;28;20073;-65
2022/08/11 13:17:47;;;;;;;8.60;2.83;;;;;;;26.78;46.27;96824.38;5041889;28;20045;-64
2022/08/11 13:20:18;;;;;;;5.60;2.50;;;;;;;27.26;45.02;96813.28;5034820;28;20041;-65
2022/08/11 13:22:48;;;;;;;4.35;2.22;;;;;;;27.39;45.94;96815.88;5041144;28;20041;-63
2022/08/11 13:25:16;;;;;;;5.55;2.90;;;;;;;27.24;46.36;96820.59;5021918;28;20037;-64
2022/08/11 13:27:44;;;;;;;5.47;2.55;;;;;;;27.71;44.70;96815.53;5041353;28;20638;-65
2022/08/11 13:32:55;;;;;;;3.58;2.40;;;;;;;27.51;42.45;96802.06;5041281;28;20141;-66
2022/08/11 13:35:21;;;;;;;4.15;1.95;;;;;;;28.36;40.53;96805.34;5025786;28;20559;-65
2022/08/11 13:37:49;;;;;;;5.85;2.17;;;;;;;27.92;40.74;96803.22;5037474;28;20045;-66
2022/08/11 13:40:19;;;;;;;5.88;2.22;;;;;;;27.67;40.44;96798.81;5035232;28;20068;-67
2022/08/11 13:42:46;;;;;;;4.10;2.28;;;;;;;27.53;41.09;96793.91;5041132;28;20445;-65
2022/08/11 13:45:13;;;;;;;5.32;2.67;;;;;;;28.06;40.77;96798.13;5031639;28;20105;-67
2022/08/11 13:47:39;;;;;;;6.40;2.05;;;;;;;27.96;40.82;96795.34;5040182;28;20033;-66
2022/08/11 13:50:07;;;;;;;7.65;2.70;;;;;;;27.45;40.66;96791.47;5037025;28;20572;-64
2022/08/11 13:52:34;;;;;;;3.45;1.98;;;;;;;27.26;41.23;96779.56;5039730;28;20049;-66
2022/08/11 13:55:00;;;;;;;5.82;2.30;;;;;;;27.40;42.04;96780.84;5041632;28;20043;-65
2022/08/11 13:57:32;;;;;;;4.28;2.55;;;;;;;27.27;40.94;96775.47;5035013;28;20084;-66
2022/08/11 14:00:08;;;;;;;7.03;2.15;;;;;;;27.22;41.55;96776.09;5040982;28;20095;-67
2022/08/11 14:02:38;;;;;;;3.88;2.15;;;;;;;27.24;40.60;96767.97;5037698;28;20045;-67
2022/08/11 14:05:12;;;;;;;3.58;1.83;;;;;;;27.07;39.65;96764.78;5034999;28;20458;-63
2022/08/11 14:07:40;;;;;;;6.53;2.45;;;;;;;27.52;39.99;96764.25;5036547;28;20044;-66
2022/08/11 14:10:09;;;;;;;5.77;2.10;;;;;;;27.76;39.73;96761.41;5036031;28;20037;-65
2022/08/11 14:15:23;;;;;;;5.00;2.17;;;;;;;27.66;38.52;96757.91;5034157;28;20051;-65
2022/08/11 14:18:18;;;;;;;7.45;2.83;;;;;;;28.34;38.43;96760.00;5040057;28;20048;-66
2022/08/11 14:23:37;;;;;;;4.82;2.03;;;;;;;28.03;37.84;96761.19;5042686;28;20129;-67
2022/08/11 14:28:52;;;;;;;3.25;1.92;;;;;;;27.58;38.12;96749.03;5020034;28;20049;-67
2022/08/11 14:31:17;;;;;;;;;;;;;;;27.52;39.38;96748.13;5038978;28;20056;-65
2022/08/11 14:33:44;;;;;;;6.53;2.63;;;;;;;27.43;39.62;96748.97;5043708;28;20532;-65
2022/08/11 14:36:11;;;;;;;4.20;1.80;;;;;;;27.51;40.13;96754.25;5020714;28;20041;-65
2022/08/11 14:38:38;;;;;;;2.90;1.85;;;;;;;27.61;37.58;96755.75;5044462;28;20068;-66
2022/08/11 14:49:21;;;;;;;5.43;2.42;;;;;;;27.25;38.66;96741.41;5040074;28;20044;-66
2022/08/11 14:51:48;;;;;;;3.55;2.17;;;;;;;27.62;40.62;96737.59;5039911;28;20105;-68
2022/08/11 14:57:02;;;;;;;4.57;2.03;;;;;;;27.13;39.49;96733.97;5043997;28;20060;-65
2022/08/11 14:59:28;;;;;;;5.20;2.00;;;;;;;27.12;38.63;96731.63;5029420;28;20076;-66
2022/08/11 15:04:38;;;;;;;5.35;2.10;;;;;;;27.17;39.05;96731.78;5043736;28;20134;-66
2022/08/11 15:07:04;;;;;;;4.10;2.00;;;;;;;27.34;38.00;96725.78;5032381;28;20486;-64
2022/08/11 15:09:30;;;;;;;4.95;1.67;;;;;;;27.40;37.35;96726.66;5044529;28;20041;-66
2022/08/11 15:12:15;;;;;;;5.75;1.92;;;;;;;27.53;37.87;96726.41;5034286;28;20130;-66
2022/08/11 15:17:32;;;;;;;4.53;1.80;;;;;;;27.49;37.51;96717.38;5030938;28;20095;-66
2022/08/11 15:25:33;;;;;;;3.03;2.20;;;;;;;27.09;38.62;96724.94;5042929;28;20124;-66
2022/08/11 15:39:26;;;;;;;3.40;1.98;;;;;;;27.13;39.02;96708.66;5040282;28;20537;-63
2022/08/11 15:47:56;;;;;;;7.40;2.08;;;;;;;27.44;38.91;96699.13;5041850;28;20032;-66
2022/08/11 15:50:23;;;;;;;4.63;1.88;;;;;;;27.34;39.53;96703.28;5031701;28;20662;-65
2022/08/11 15:52:55;;;;;;;9.55;1.90;;;;;;;27.15;40.69;96699.75;5042883;28;20044;-65
2022/08/11 15:55:23;;;;;;;3.55;1.80;;;;;;;27.07;40.28;96693.72;5035791;28;20037;-64
2022/08/11 16:06:08;;;;;;;3.40;1.77;;;;;;;26.77;40.17;96684.38;5036697;28;20095;-65
2022/08/11 16:08:35;;;;;;;7.20;1.98;;;;;;;26.81;40.24;96684.97;5022351;28;20055;-65
2022/08/11 16:11:02;;;;;;;4.07;1.85;;;;;;;26.96;40.37;96680.22;5024575;28;20037;-66
2022/08/11 16:16:31;;;;;;;3.88;1.80;;;;;;;26.73;40.11;96675.34;5042262;28;20044;-65
2022/08/11 16:18:55;;;;;;;4.57;2.03;;;;;;;26.64;40.27;96676.16;5037983;28;20048;-66
2022/08/11 16:21:25;;;;;;;6.93;2.22;;;;;;;26.55;39.83;96670.56;5036557;28;20044;-65
2022/08/11 16:23:53;;;;;;;4.72;2.00;;;;;;;26.54;41.13;96666.94;5040651;28;20037;-65
2022/08/11 16:26:22;;;;;;;5.97;1.90;;;;;;;26.54;39.18;96664.13;5036531;28;20501;-65
2022/08/11 16:28:51;;;;;;;4.25;2.58;;;;;;;26.57;39.63;96657.56;5040738;28;20037;-65
2022/08/11 16:31:17;;;;;;;3.08;2.08;;;;;;;26.45;40.62;96662.16;5034792;28;20060;-66
2022/08/11 16:33:46;;;;;;;8.70;4.55;;;;;;;26.50;39.96;96663.53;5041532;28;20060;-66
2022/08/11 16:38:59;;;;;;;4.95;2.17;;;;;;;26.48;40.00;96655.59;5039756;28;20457;-67
2022/08/11 16:47:00;;;;;;;4.65;2.35;;;;;;;26.66;39.83;96646.31;5034056;28;20052;-66
2022/08/11 16:49:37;;;;;;;6.53;1.92;;;;;;;26.45;39.18;96644.53;5036565;28;20124;-65
2022/08/11 16:52:06;;;;;;;6.93;2.10;;;;;;;26.54;40.43;96649.31;5034915;28;20516;-64
2022/08/11 16:54:34;;;;;;;6.72;2.08;;;;;;;26.39;40.07;96655.63;5021537;28;20079;-66
2022/08/11 16:59:55;;;;;;;3.45;2.17;;;;;;;26.05;41.65;96646.38;5039895;28;20777;-66
2022/08/11 17:13:41;;;;;;;8.55;2.45;;;;;;;25.86;42.87;96653.25;5037359;28;20123;-66
2022/08/11 17:16:11;;;;;;;3.50;2.05;;;;;;;25.80;41.99;96650.28;5032254;28;20047;-65